TenaciousA's sites:

title views votes rating creation
?Zoidberg! 10,098 125 (3.86)  2005-07-29
?I believe in Bilbo Baggins 5,123 59 (3.59)  2005-07-30
?Dr Zoidberg Fails at Life 15,083 133 (3.66)  2005-07-31
?Marty McFly Bookstore Crash 22,464 252 (3.88)  2005-08-01
?Viggo's Drink of Choice 5,604 110 (3.69)  2005-08-03
?Calamari Damacy 5,255 69 (3.74)  2005-08-14
?Metallica in Doom 11,886 50 (3.66)  2005-09-12
?Conan summons a Conan Elemental: an artists con... 3,252 29 (3.76)  2005-10-04
?In the midnight hour cry... 6,614 126 (3.98)  2005-10-14
?(nsfw) Inward Singing is Serious Business (NSFW) 20,925 62 (3.79)  2005-10-19
?Brian Peppers had SEVERAL weaknesses, not the... 13,995 107 (3.82)  2005-10-23
?(nsfw) Goatse's Surprise! 4,042 29 (3.83)  2005-11-05
?(nsfw) Harry Potter: Welcome to Hogwarts! 11,847 62 (4.03)  2005-11-25
?OMG, Secret Nazi Coca Cola Robot ?!?! 4,961 34 (3.76)  2005-11-27
?(nsfw) A message to downvoters (NSFW) 28,823 272 (4.00)  2005-11-30
?OMG! Stephen Hawking thinks I have Spyware! 3,392 43 (3.72)  2005-12-06
?Arnold to Tookie: 4,532 35 (3.69)  2005-12-13
?N*gg* addresses congress 17,181 440 (4.22)  2005-12-15
?From the makers of Gay Fuel: 7,874 132 (3.97)  2005-12-18
?Resident Evil 4 pretty much is Temple of Doom (up... 34,878 451 (4.12)  2005-12-23
?Star wars: Wedge: whoo-ahhh that got im'!! 4,425 36 (3.69)  2005-12-24
?Clumsy Vader Slips Up Again 47,000 891 (4.23)  2006-01-23
?United Nations Secretary-Genaral: Kofi... 3,668 123 (4.04)  2006-01-31
?(nsfw) (NSFW) Star Wars: Mace Windu uncenso... 268,814 2,361 (4.49)  2006-02-06
?SHOP VAC! 5,186 175 (4.03)  2006-02-07
?One of C3PO's many languages 2,140 33 (3.88)  2006-02-08
?Terminator 3: Bonus Round! 2,453 27 (3.67)  2006-02-20
?Rage against the Machine: Pokemon! 7,117 45 (3.64)  2006-02-22
?(nsfw) (NSFW) Rage Against the Machine Dew Ar... 18,743 85 (3.94)  2006-02-26
?A Warning to Sunbathers 2,423 31 (3.84)  2006-03-08
?That's Smee in the corner! 41,988 580 (3.86)  2006-03-09
?High Wood! 1,761 26 (3.96)  2006-03-09
?Marathon Handicap 1,416 40 (3.93)  2006-03-12
?Lucy in the Sky With Diamonds!! 2,548 34 (4.12)  2006-03-19
?Move Squeak! 1,242 42 (3.40)  2006-03-21
?Ello! LOL 1,395 19 (3.95)  2006-03-22
?FREEDOM!!! 2,102 42 (3.95)  2006-03-27
?Who will find Han Solo? (wait for sound) 4,100 26 (3.81)  2006-04-02
?You Cannot Defeat Reznor! 1,328 38 (3.39)  2006-04-03
?Bombtrack! 1,339 53 (3.62)  2006-04-04
?Bad Dates 1,566 34 (3.97)  2006-04-08
?Omni-temporal Conan enslaves us all! 14,687 428 (4.24)  2006-04-10
?Interested in Yao 755 11 (3.36)  2006-05-04
?Everyone has Eggs! 1,133 14 (4.29)  2006-05-07
?My Best Man's Marriage Advice 5,807 25 (3.84)  2006-05-18
?NEDRY 3.0 4,650 64 (3.97)  2006-05-21
?This Wall DOES have a weakness! 3,921 67 (4.07)  2006-05-24
?Tenacious D: Demon Exterminator Noobs 9,796 170 (4.01)  2006-05-28
?Send 'em to the 7th level! 3,128 145 (3.88)  2006-05-31
?Pig Time 1,911 18 (3.83)  2006-07-15
?President Bush's exit strategy for Iraq! 2,158 28 (3.71)  2006-07-17
?Quit Playin Games With My Heart! 1,867 26 (4.00)  2006-07-17
?The Incredible Exploits of www.allaboutscience.org 7,508 405 (4.04)  2006-08-09
?E 839 12 (3.67)  2006-09-20
?Lye! 1,295 27 (3.19)  2006-10-30
?(nsfw) A Clockwork Whorange (NSFW) 24,285 132 (3.87)  2006-11-30
?Van Halen's Corporate Sponsor 1,429 6 (3.50)  2006-12-13
?300TMND: This is... a Big Kahuna Burger! 24,654 500 (4.05)  2007-03-18
?FORE! 886 5 (3.20)  2007-03-19
?What does it tell you? 582 6 (3.67)  2007-03-27
?(nsfw) The Size Of Our World - New Scale Item! 13,647 325 (4.24)  2007-03-31
?The Mad Cow Says: 1,532 18 (3.89)  2007-04-20
?Apu views a typical YTMND 8,664 335 (4.33)  2007-05-24
?He Chose Poorly 25,216 324 (3.73)  2007-08-05
?Dont Tase Christopher Lloyd! 6,855 132 (2.92)  2007-09-21
?(nsfw) Some people have no tolerance for dramas 1,862 38 (2.53)  2007-09-26
?Ooo! Watch the puppets Danson! 10,643 234 (4.02)  2007-09-27
?I know that laugh 8,336 177 (3.85)  2007-10-09
?Eddie Watches Mir-cats 1,999 44 (3.32)  2007-10-22
?Sacrilegious Operation 4,919 62 (3.53)  2007-11-07
?The Lamentations of Uncle Rico 3,314 88 (3.80)  2007-11-28
?Any one else with a comment? 11,012 487 (4.20)  2007-12-04
?Jeffrey Jones Offers the Blessing 5,442 105 (3.92)  2007-12-05
?Who the Hell are you?! 4,549 55 (3.85)  2007-12-05
?Real Letter from Gul Madred 9,897 356 (4.13)  2007-12-17
?The Epic Debate Rages On 4,362 103 (3.93)  2007-12-18
?Vader gets a faulty gift 3,474 105 (3.71)  2007-12-21
?Why you stuck up, half witted, Scruffy looking, ne... 4,879 127 (3.87)  2008-01-05
?How Infamous Banditios Answer the Phone 1,750 35 (3.69)  2008-01-29
?Harry Potter 1 (Special Abridged Edition) 7,415 221 (3.96)  2008-01-30
?2:00 AM at the Larson residence 3,131 111 (3.86)  2008-02-06
?Richard Dawkins: Sneak Attack 9,909 274 (4.06)  2008-02-14
?aka Constipation 8,415 280 (4.03)  2008-04-06
?WAKE UP DR. JONES!!! 2,794 43 (3.30)  2008-04-20
?ITMGKBIGMAMMATISHMFCIAHSWSA5 2,061 56 (3.89)  2008-04-28
?A scenic tour of Istanbul 4,333 90 (3.84)  2008-05-01
?How is this pencil sharpener different from others? 2,213 50 (3.36)  2008-05-09
?HAY! WEIGHT! 497 4 (3.00)  2008-07-09
?Rejected TV Show Theme Songs #6 1,119 3 (3.67)  2008-07-17
?How to do cold reading with Sylvia Browne 22,199 447 (4.46)  2008-08-11
?Downsizing at Initech 1,069 9 (3.78)  2008-08-14
?Palin's Views on McCain 6,082 85 (3.80)  2008-10-06
?BIG JACK! 1,616 7 (2.86)  2009-03-03